Time;durP1;ratioP1;P1;durP2;ratioP2;P2;SDS_P1;SDS_P2;PMS_P1;PMS_P2;Temp;Humidity;BMP_temperature;BMP_pressure;BME280_temperature;BME280_humidity;BME280_pressure;Samples;Min_cycle;Max_cycle;Signal;HPM_P1;HPM_P2
2022/10/17 00:01:02;;;;;;;4.65;1.80;;;16.30;99.90;;;16.25;100.00;97276.31;6214738;23;20361;-67
2022/10/17 00:03:29;;;;;;;6.78;1.95;;;16.50;99.90;;;16.24;100.00;97275.47;6190958;23;20556;-67
2022/10/17 00:05:56;;;;;;;6.15;1.88;;;16.50;99.90;;;16.22;100.00;97274.75;6217663;23;20095;-67
2022/10/17 00:08:24;;;;;;;4.93;2.00;;;16.60;99.90;;;16.34;100.00;97288.75;6215163;23;20119;-67
2022/10/17 00:11:02;;;;;;;6.47;1.80;;;16.70;99.90;;;16.27;100.00;97288.34;6216884;23;20170;-67
2022/10/17 00:13:35;;;;;;;5.45;2.00;;;16.70;99.90;;;16.28;100.00;97294.41;6206967;23;20471;-67
2022/10/17 00:16:04;;;;;;;6.03;1.70;;;16.70;99.90;;;16.61;100.00;97300.84;6204658;23;20027;-67
2022/10/17 00:18:31;;;;;;;4.28;2.10;;;16.80;99.90;;;16.60;100.00;97307.84;6207671;23;20033;-67
2022/10/17 00:20:58;;;;;;;2.75;1.65;;;16.90;99.90;;;16.43;100.00;97310.84;6206713;23;20074;-67
2022/10/17 00:23:27;;;;;;;5.15;1.63;;;16.80;99.90;;;16.73;100.00;97311.25;6206606;23;20536;-66
2022/10/17 00:25:59;;;;;;;6.05;1.60;;;16.90;99.90;;;16.68;100.00;97321.25;6206090;23;20029;-67
2022/10/17 00:28:26;;;;;;;11.75;1.92;;;17.00;99.90;;;16.51;100.00;97322.47;6207984;23;20389;-67
2022/10/17 00:31:02;;;;;;;4.30;1.60;;;16.90;99.90;;;16.51;100.00;97325.06;6207063;23;20028;-67
2022/10/17 00:33:30;;;;;;;6.28;2.00;;;16.90;99.90;;;16.48;100.00;97330.50;6207427;23;20028;-67
2022/10/17 00:36:14;;;;;;;7.72;2.08;;;16.90;99.90;;;16.63;100.00;97322.53;6207785;23;20032;-67
2022/10/17 00:38:43;;;;;;;5.80;1.50;;;16.80;99.90;;;16.67;100.00;97329.22;6207636;23;20024;-67
2022/10/17 00:41:14;;;;;;;4.30;1.70;;;16.90;99.90;;;16.63;100.00;97340.88;6207533;23;20126;-67
2022/10/17 00:44:23;;;;;;;4.70;1.60;;;17.00;99.90;;;16.75;100.00;97332.13;6207735;23;20048;-67
2022/10/17 00:46:49;;;;;;;7.88;1.63;;;17.00;99.90;;;16.92;100.00;97338.81;6206477;23;20364;-67
2022/10/17 00:49:17;;;;;;;6.82;1.90;;;17.10;99.90;;;16.82;100.00;97349.13;6206582;23;20023;-67
2022/10/17 00:51:50;;;;;;;4.53;1.70;;;17.10;99.90;;;16.97;100.00;97352.44;6205675;23;20027;-67
2022/10/17 00:54:22;;;;;;;5.03;1.55;;;17.30;99.90;;;16.88;100.00;97353.09;6206184;23;20020;-67
2022/10/17 00:56:50;;;;;;;5.25;1.50;;;17.20;99.90;;;16.86;100.00;97357.63;6205347;23;20028;-67
2022/10/17 00:59:19;;;;;;;4.00;1.63;;;17.20;99.90;;;16.90;100.00;97359.91;6206706;23;20024;-67
2022/10/17 01:02:02;;;;;;;6.93;2.03;;;17.20;99.90;;;16.90;100.00;97359.91;6206930;23;20020;-67
2022/10/17 01:04:29;;;;;;;5.15;1.40;;;17.30;99.90;;;17.13;100.00;97373.16;6230149;23;20492;-67
2022/10/17 01:06:56;;;;;;;3.25;1.42;;;17.40;99.90;;;17.13;100.00;97368.72;6207815;23;20028;-67
2022/10/17 01:09:24;;;;;;;9.23;1.70;;;17.40;99.90;;;16.98;100.00;97377.69;6208349;23;20032;-67
2022/10/17 01:12:28;;;;;;;6.88;1.70;;;17.40;99.90;;;16.84;100.00;97365.56;6203868;23;20387;-67
2022/10/17 01:15:37;;;;;;;6.28;2.08;;;17.30;99.90;;;16.98;100.00;97369.00;6207084;23;20021;-67
2022/10/17 01:18:28;;;;;;;6.85;1.55;;;17.30;99.90;;;16.93;100.00;97367.53;6142157;23;20022;-67
2022/10/17 01:21:27;;;;;;;4.30;1.52;;;17.30;99.90;;;16.90;100.00;97380.88;6207706;23;20352;-67
2022/10/17 01:24:24;;;;;;;4.80;1.40;;;17.20;99.90;;;16.96;100.00;97391.88;6205162;23;20123;-67
2022/10/17 01:27:29;;;;;;;8.68;1.90;;;17.30;99.90;;;17.01;100.00;97393.19;6205794;23;20028;-67
2022/10/17 01:30:25;;;;;;;10.75;1.70;;;17.30;99.90;;;16.95;100.00;97384.97;6205819;23;20020;-67
2022/10/17 01:32:57;;;;;;;4.15;1.65;;;17.30;99.90;;;16.97;100.00;97394.38;6213166;23;20437;-67
2022/10/17 01:35:43;;;;;;;3.95;1.90;;;17.30;99.90;;;16.84;100.00;97386.56;6213389;23;20025;-67
2022/10/17 01:38:16;;;;;;;9.10;1.70;;;17.30;99.90;;;16.86;100.00;97382.03;6201625;23;20027;-66
2022/10/17 01:40:58;;;;;;;3.85;1.80;;;17.20;99.90;;;17.04;100.00;97385.13;6204174;23;20036;-67
2022/10/17 01:43:48;;;;;;;6.80;1.98;;;17.20;99.90;;;17.08;100.00;97397.09;6205187;23;20020;-67
2022/10/17 01:46:25;;;;;;;19.48;2.40;;;17.30;99.90;;;16.89;100.00;97394.09;6203158;23;20028;-67
2022/10/17 01:48:53;;;;;;;7.00;1.80;;;17.30;99.90;;;16.99;100.00;97395.13;6205291;23;20075;-67
2022/10/17 01:51:27;;;;;;;3.50;1.90;;;17.30;99.90;;;16.91;100.00;97393.03;6205227;23;20016;-68
2022/10/17 01:54:13;;;;;;;4.90;1.92;;;17.30;99.90;;;16.88;100.00;97384.56;6205261;23;20485;-67
2022/10/17 01:56:42;;;;;;;7.28;2.00;;;17.20;99.90;;;16.87;100.00;97386.31;6206285;23;20025;-67
2022/10/17 01:59:20;;;;;;;4.47;1.50;;;17.30;99.90;;;16.87;100.00;97375.84;6206099;23;20075;-67
2022/10/17 02:01:51;;;;;;;5.97;1.90;;;17.20;99.90;;;16.80;100.00;97390.31;6205410;23;20031;-66
2022/10/17 02:04:19;;;;;;;5.45;1.90;;;17.20;99.90;;;16.68;100.00;97376.28;6204837;23;20495;-68
2022/10/17 02:06:46;;;;;;;7.35;1.90;;;17.20;99.90;;;16.70;100.00;97376.19;6205990;23;20483;-67
2022/10/17 02:09:25;;;;;;;4.80;1.83;;;17.10;99.90;;;16.60;100.00;97380.38;6207286;23;20024;-67
2022/10/17 02:12:28;;;;;;;8.45;1.85;;;17.00;99.90;;;16.47;100.00;97378.63;6207934;23;20025;-67
2022/10/17 02:15:30;;;;;;;8.18;2.10;;;16.90;99.90;;;16.56;100.00;97378.91;6206872;23;20024;-67
2022/10/17 02:18:29;;;;;;;7.82;1.75;;;16.90;99.90;;;16.56;100.00;97371.06;6204914;23;20453;-67
2022/10/17 02:21:44;;;;;;;6.50;1.92;;;16.90;99.90;;;16.58;100.00;97377.03;6206963;23;20025;-67
2022/10/17 02:24:28;;;;;;;6.47;2.00;;;16.90;99.90;;;16.44;100.00;97376.19;6205293;23;20032;-68
2022/10/17 02:27:13;;;;;;;4.65;1.85;;;16.90;99.90;;;16.54;100.00;97392.13;6205751;23;20025;-67
2022/10/17 02:29:49;;;;;;;8.38;1.73;;;16.90;99.90;;;16.48;100.00;97382.91;6207232;23;20099;-67
2022/10/17 02:32:32;;;;;;;3.65;1.95;;;16.90;99.90;;;16.48;100.00;97392.56;6205961;23;20016;-67
2022/10/17 02:35:03;;;;;;;5.95;2.00;;;16.90;99.90;;;16.57;100.00;97385.84;6203465;23;20020;-67
2022/10/17 02:37:31;;;;;;;7.60;1.92;;;16.90;99.90;;;16.54;100.00;97393.94;6204137;23;20016;-67
2022/10/17 02:39:59;;;;;;;7.70;2.50;;;16.90;99.90;;;16.53;100.00;97395.69;6205116;23;20024;-67
2022/10/17 02:42:28;;;;;;;7.40;1.75;;;16.90;99.90;;;16.62;100.00;97396.84;6205630;23;20096;-67
2022/10/17 02:44:59;;;;;;;3.88;1.60;;;16.90;99.90;;;16.54;100.00;97400.00;6204724;23;20710;-67
2022/10/17 02:47:46;;;;;;;3.92;1.65;;;16.90;99.90;;;16.44;100.00;97391.91;6205079;23;20028;-67
2022/10/17 02:50:14;;;;;;;5.40;1.83;;;16.90;99.90;;;16.48;100.00;97395.19;6207254;23;20024;-67
2022/10/17 02:53:11;;;;;;;4.10;1.73;;;16.90;99.90;;;16.35;100.00;97392.56;6204823;23;20017;-67
2022/10/17 02:55:46;;;;;;;4.75;1.83;;;16.80;99.90;;;16.58;100.00;97398.00;6205645;23;20026;-66
2022/10/17 02:58:24;;;;;;;4.32;1.77;;;16.80;99.90;;;16.56;100.00;97394.63;6206819;23;20090;-67
2022/10/17 03:00:51;;;;;;;3.72;1.80;;;16.90;99.90;;;16.60;100.00;97396.94;6207503;23;20028;-67
2022/10/17 03:03:31;;;;;;;8.38;2.33;;;16.90;99.90;;;16.55;100.00;97391.19;6206960;23;20082;-67
2022/10/17 03:05:57;;;;;;;6.57;2.10;;;16.90;99.90;;;16.63;100.00;97385.44;6207936;23;20024;-67
2022/10/17 03:08:24;;;;;;;4.40;1.92;;;17.00;99.90;;;16.60;100.00;97385.63;6208683;23;20090;-67
2022/10/17 03:10:51;;;;;;;3.80;1.90;;;16.90;99.90;;;16.51;100.00;97382.72;6206001;23;20020;-67
2022/10/17 03:13:18;;;;;;;5.70;2.20;;;17.00;99.90;;;16.45;100.00;97384.94;6209548;23;20024;-67
2022/10/17 03:15:46;;;;;;;8.90;1.95;;;16.90;99.90;;;16.41;100.00;97384.28;6208892;23;20047;-67
2022/10/17 03:18:13;;;;;;;6.47;2.00;;;16.80;99.90;;;16.49;100.00;97381.16;6208483;23;20022;-67
2022/10/17 03:20:40;;;;;;;6.57;2.13;;;16.80;99.90;;;16.60;100.00;97386.44;6209553;23;20029;-67
2022/10/17 03:23:07;;;;;;;6.00;2.10;;;16.90;99.90;;;16.53;100.00;97393.06;6209183;23;20055;-67
2022/10/17 03:25:34;;;;;;;2.88;1.48;;;16.90;99.90;;;16.51;100.00;97387.97;6207263;23;20040;-67
2022/10/17 03:28:01;;;;;;;5.50;2.08;;;16.90;99.90;;;16.43;100.00;97405.16;6209434;23;20024;-67
2022/10/17 03:30:28;;;;;;;5.50;1.80;;;16.80;99.90;;;16.42;100.00;97395.59;6208650;23;20020;-67
2022/10/17 03:32:57;;;;;;;9.48;2.10;;;16.80;99.90;;;16.44;100.00;97394.53;6207712;23;20336;-68
2022/10/17 03:35:25;;;;;;;5.63;2.05;;;16.80;99.90;;;16.52;100.00;97397.47;6208699;23;20712;-67
2022/10/17 03:37:55;;;;;;;7.88;2.05;;;16.80;99.90;;;16.36;100.00;97401.28;6208175;23;20025;-67
2022/10/17 03:40:21;;;;;;;6.10;2.17;;;16.70;99.90;;;16.47;100.00;97401.38;6206732;23;20028;-67
2022/10/17 03:42:49;;;;;;;5.93;1.88;;;16.80;99.90;;;16.64;100.00;97398.41;6207798;23;20035;-67
2022/10/17 03:45:16;;;;;;;8.85;1.90;;;16.90;99.90;;;16.63;100.00;97409.00;6207084;23;20399;-67
2022/10/17 03:47:42;;;;;;;9.98;2.95;;;17.00;99.90;;;16.49;100.00;97404.72;6206730;23;20036;-66
2022/10/17 03:50:09;;;;;;;7.22;2.22;;;17.00;99.90;;;16.53;100.00;97411.41;6208547;23;20092;-67
2022/10/17 03:52:36;;;;;;;5.38;1.73;;;16.90;99.90;;;16.51;100.00;97416.78;6208043;23;20027;-67
2022/10/17 03:55:03;;;;;;;10.18;2.00;;;16.90;99.90;;;16.44;100.00;97419.91;6208040;23;20017;-67
2022/10/17 03:57:30;;;;;;;8.05;2.80;;;16.90;99.90;;;16.38;100.00;97413.31;6208514;23;20024;-67
2022/10/17 03:59:58;;;;;;;9.65;2.13;;;16.80;99.90;;;16.17;100.00;97418.25;6206994;23;20025;-67
2022/10/17 04:02:24;;;;;;;8.35;2.65;;;16.80;99.90;;;16.15;100.00;97411.41;6207385;23;20099;-68
2022/10/17 04:04:51;;;;;;;6.95;2.10;;;16.70;99.90;;;16.08;100.00;97409.22;6208231;23;20444;-67
2022/10/17 04:07:18;;;;;;;5.25;1.88;;;16.70;99.90;;;16.21;100.00;97411.84;6207906;23;20017;-67
2022/10/17 04:09:45;;;;;;;8.60;2.30;;;16.70;99.90;;;16.24;100.00;97416.88;6208476;23;20044;-67
2022/10/17 04:12:12;;;;;;;6.70;1.90;;;16.60;99.90;;;16.11;100.00;97423.91;6208561;23;20096;-67
2022/10/17 04:14:39;;;;;;;6.30;1.98;;;16.60;99.90;;;16.22;100.00;97424.00;6208604;23;20028;-67
2022/10/17 04:17:05;;;;;;;4.93;1.85;;;16.60;99.90;;;16.31;100.00;97439.09;6206028;23;20403;-67
2022/10/17 04:19:32;;;;;;;8.15;1.58;;;16.70;99.90;;;16.25;100.00;97441.28;6208101;23;20051;-67
2022/10/17 04:21:59;;;;;;;5.88;2.00;;;16.70;99.90;;;16.26;100.00;97443.81;6209219;23;20017;-67
2022/10/17 04:24:26;;;;;;;7.25;1.95;;;16.70;99.90;;;16.37;100.00;97453.53;6231747;23;20027;-67
2022/10/17 04:26:53;;;;;;;7.30;1.80;;;16.80;99.90;;;16.31;100.00;97459.22;6208331;23;20040;-66
2022/10/17 04:29:20;;;;;;;7.70;2.22;;;16.80;99.90;;;16.38;100.00;97462.25;6208677;23;20024;-66
2022/10/17 04:31:48;;;;;;;8.40;2.15;;;16.80;99.90;;;16.24;100.00;97457.97;6206661;23;20028;-66
2022/10/17 04:34:15;;;;;;;7.13;1.80;;;16.80;99.90;;;15.83;100.00;97465.00;6208384;23;20516;-67
2022/10/17 04:36:42;;;;;;;8.68;2.17;;;16.70;99.90;;;15.70;100.00;97461.47;6208323;23;20031;-67
2022/10/17 04:39:09;;;;;;;6.35;1.98;;;16.50;99.90;;;15.59;100.00;97461.31;6207683;23;20024;-67
2022/10/17 04:41:36;;;;;;;5.40;1.70;;;16.40;99.90;;;15.57;100.00;97450.13;6207771;23;20348;-67
2022/10/17 04:44:03;;;;;;;5.90;1.95;;;16.30;99.90;;;15.48;100.00;97452.38;6208810;23;20044;-67
2022/10/17 04:46:32;;;;;;;6.45;1.90;;;16.20;99.90;;;15.76;100.00;97439.31;6205132;23;20044;-67
2022/10/17 04:48:59;;;;;;;6.72;2.13;;;16.20;99.90;;;16.02;100.00;97438.44;6208074;23;20028;-67
2022/10/17 04:51:26;;;;;;;8.02;1.88;;;16.30;99.90;;;15.98;100.00;97441.34;6207577;23;20468;-66
2022/10/17 04:53:53;;;;;;;5.63;2.00;;;16.40;99.90;;;16.33;100.00;97462.56;6208141;23;20482;-67
2022/10/17 04:56:23;;;;;;;5.53;1.88;;;16.50;99.90;;;16.55;100.00;97476.81;6208023;23;20017;-67
2022/10/17 04:58:50;;;;;;;8.30;1.90;;;16.80;99.90;;;16.55;100.00;97493.38;6207142;23;20025;-67
2022/10/17 05:01:20;;;;;;;5.75;1.70;;;16.80;99.90;;;16.53;100.00;97500.50;6205661;23;20460;-67
2022/10/17 05:03:48;;;;;;;4.93;1.52;;;16.80;99.90;;;16.35;100.00;97496.50;6207937;23;20099;-67
2022/10/17 05:06:18;;;;;;;7.25;1.85;;;16.80;99.90;;;16.35;100.00;97499.13;6207495;23;20337;-67
2022/10/17 05:08:46;;;;;;;5.53;1.80;;;16.80;99.90;;;16.22;100.00;97497.34;6208539;23;20028;-67
2022/10/17 05:11:20;;;;;;;5.20;2.00;;;16.70;99.90;;;16.19;100.00;97494.06;6205536;23;20021;-67
2022/10/17 05:13:56;;;;;;;5.68;1.70;;;16.70;99.90;;;16.22;100.00;97484.25;6206320;23;20028;-67
2022/10/17 05:16:24;;;;;;;5.72;1.42;;;16.60;99.90;;;16.41;100.00;97488.25;6206970;23;20123;-67
2022/10/17 05:18:54;;;;;;;6.10;1.40;;;16.70;99.90;;;16.67;100.00;97489.06;6206751;23;20682;-67
2022/10/17 05:21:23;;;;;;;4.47;1.60;;;16.90;99.90;;;16.53;100.00;97505.72;6208299;23;20025;-67
2022/10/17 05:23:51;;;;;;;5.18;1.50;;;16.90;99.90;;;16.46;100.00;97515.78;6208476;23;20395;-67
2022/10/17 05:26:19;;;;;;;6.50;1.65;;;16.90;99.90;;;16.47;100.00;97501.75;6207360;23;20020;-67
2022/10/17 05:28:46;;;;;;;8.75;1.98;;;16.80;99.90;;;16.50;100.00;97503.34;6208597;23;20035;-67
2022/10/17 05:31:13;;;;;;;4.22;1.58;;;16.80;99.90;;;16.51;100.00;97494.50;6207946;23;20044;-67
2022/10/17 05:33:40;;;;;;;5.22;1.42;;;16.80;99.90;;;16.51;100.00;97491.91;6204633;23;20028;-67
2022/10/17 05:36:08;;;;;;;5.30;1.42;;;16.90;99.90;;;16.58;100.00;97510.66;6207469;23;20086;-67
2022/10/17 05:38:35;;;;;;;5.65;1.88;;;16.90;99.90;;;16.65;100.00;97485.72;6207621;23;20035;-67
2022/10/17 05:41:04;;;;;;;7.35;1.52;;;16.90;99.90;;;16.70;100.00;97505.44;6206468;23;20476;-67
2022/10/17 05:43:33;;;;;;;8.18;1.90;;;17.10;99.90;;;16.81;100.00;97528.31;6205802;23;20032;-67
2022/10/17 05:46:04;;;;;;;4.88;1.60;;;17.10;99.90;;;16.82;100.00;97529.16;6206426;23;20033;-67
2022/10/17 05:48:31;;;;;;;5.20;1.30;;;17.10;99.90;;;16.69;100.00;97510.78;6206908;23;20044;-67
2022/10/17 05:51:01;;;;;;;4.95;1.42;;;17.10;99.90;;;16.65;100.00;97509.28;6206840;23;20024;-67
2022/10/17 05:53:33;;;;;;;5.15;1.60;;;17.10;99.90;;;16.59;100.00;97513.19;6205772;23;20024;-67
2022/10/17 05:56:02;;;;;;;4.53;1.77;;;17.00;99.90;;;16.59;100.00;97520.22;6205324;23;20020;-67
2022/10/17 05:58:30;;;;;;;3.92;1.60;;;17.00;99.90;;;16.60;100.00;97501.75;6206032;23;20025;-67
2022/10/17 06:01:15;;;;;;;5.47;1.50;;;17.00;99.90;;;16.68;100.00;97499.47;6206897;23;20103;-67
2022/10/17 06:03:42;;;;;;;6.45;1.63;;;17.00;99.90;;;16.70;100.00;97494.13;6207174;23;20025;-67
2022/10/17 06:06:12;;;;;;;8.10;2.00;;;17.10;99.90;;;16.70;100.00;97492.31;6206384;23;20032;-67
2022/10/17 06:08:39;;;;;;;5.55;1.70;;;17.10;99.90;;;16.68;100.00;97486.34;6205409;23;20024;-67
2022/10/17 06:11:06;;;;;;;3.08;1.40;;;17.10;99.90;;;16.74;100.00;97479.88;6204375;23;20024;-67
2022/10/17 06:13:37;;;;;;;7.03;1.60;;;17.10;99.90;;;16.66;100.00;97482.16;6203589;23;20032;-67
2022/10/17 06:16:05;;;;;;;2.80;1.40;;;17.10;99.90;;;16.54;100.00;97476.00;6206574;23;20415;-67
2022/10/17 06:18:32;;;;;;;3.72;1.80;;;17.00;99.90;;;16.59;100.00;97475.66;6204073;23;20025;-67
2022/10/17 06:21:05;;;;;;;5.38;1.65;;;17.00;99.90;;;16.55;100.00;97475.03;6206523;23;20024;-67
2022/10/17 06:23:32;;;;;;;4.50;1.65;;;17.00;99.90;;;16.51;100.00;97491.91;6204556;23;20036;-67
2022/10/17 06:26:02;;;;;;;5.32;1.55;;;17.00;99.90;;;16.60;100.00;97474.72;6203864;23;20024;-67
2022/10/17 06:28:29;;;;;;;5.05;1.58;;;17.00;99.90;;;16.52;100.00;97483.13;6214295;23;20052;-67
2022/10/17 06:30:57;;;;;;;7.20;1.58;;;17.10;99.90;;;16.62;100.00;97485.94;6205615;23;20028;-67
2022/10/17 06:33:24;;;;;;;5.63;1.70;;;17.10;99.90;;;16.61;100.00;97485.09;6204504;23;20024;-67
2022/10/17 06:35:53;;;;;;;5.82;1.63;;;17.10;99.90;;;16.60;100.00;97500.91;6215981;23;20024;-67
2022/10/17 06:38:21;;;;;;;3.00;1.50;;;17.10;99.90;;;16.50;100.00;97491.06;6204439;23;20036;-67
2022/10/17 06:40:48;;;;;;;3.97;1.20;;;17.00;99.90;;;16.75;100.00;97499.03;6201761;23;20491;-66
2022/10/17 06:43:15;;;;;;;7.53;1.63;;;17.10;99.90;;;16.73;100.00;97504.38;6202445;23;20111;-67
2022/10/17 06:45:42;;;;;;;5.85;1.48;;;17.20;99.90;;;16.80;100.00;97510.06;6205240;23;20024;-67
2022/10/17 06:48:08;;;;;;;4.68;1.55;;;17.20;99.90;;;16.82;100.00;97516.06;6201787;23;20463;-67
2022/10/17 06:50:35;;;;;;;6.95;1.50;;;17.30;99.90;;;16.85;100.00;97528.94;6204207;23;20035;-67
2022/10/17 06:53:02;;;;;;;4.90;1.63;;;17.30;99.90;;;16.81;100.00;97530.94;6205433;23;20392;-67
2022/10/17 06:55:31;;;;;;;6.85;1.70;;;17.30;99.90;;;16.93;100.00;97530.09;6202222;23;20024;-67
2022/10/17 06:57:58;;;;;;;5.90;1.60;;;17.30;99.90;;;16.89;100.00;97536.50;6203840;23;20024;-67
2022/10/17 07:00:25;;;;;;;4.18;1.35;;;17.40;99.90;;;16.93;100.00;97543.19;6201887;23;20024;-67
2022/10/17 07:02:52;;;;;;;5.47;1.40;;;17.40;99.90;;;16.92;100.00;97543.28;6204261;23;20024;-67
2022/10/17 07:05:19;;;;;;;5.43;1.65;;;17.50;99.90;;;17.01;100.00;97541.81;6203448;23;20540;-67
2022/10/17 07:07:46;;;;;;;8.52;1.38;;;17.50;99.90;;;17.08;100.00;97551.81;6204634;23;20032;-67
2022/10/17 07:10:17;;;;;;;5.82;1.33;;;17.50;99.90;;;17.22;100.00;97560.47;6205030;23;20024;-67
2022/10/17 07:12:44;;;;;;;2.58;1.10;;;17.70;99.90;;;17.30;100.00;97553.75;6203843;23;20024;-67
2022/10/17 07:15:12;;;;;;;5.80;1.33;;;;;;;17.46;100.00;97579.75;6205224;23;20020;-67
2022/10/17 07:17:39;;;;;;;7.15;1.23;;;17.90;99.90;;;17.48;100.00;97588.34;6205491;23;20024;-67
2022/10/17 07:20:07;;;;;;;5.25;1.60;;;18.00;99.90;;;17.46;100.00;97598.13;6203587;23;20036;-67
2022/10/17 07:22:33;;;;;;;4.70;1.20;;;18.10;99.90;;;17.42;100.00;97598.44;6204761;23;20031;-67
2022/10/17 07:25:00;;;;;;;4.82;1.30;;;18.00;99.90;;;17.38;100.00;97612.72;6204324;23;20085;-67
2022/10/17 07:27:27;;;;;;;5.30;1.30;;;18.10;99.90;;;17.45;100.00;97601.69;6205481;23;20101;-68
2022/10/17 07:29:55;;;;;;;5.05;1.38;;;18.10;99.90;;;17.53;100.00;97601.16;6204917;23;20024;-67
2022/10/17 07:32:22;;;;;;;2.75;1.30;;;18.00;99.90;;;17.47;100.00;97598.94;6205383;23;20020;-67
2022/10/17 07:34:48;;;;;;;3.35;1.15;;;18.10;99.90;;;17.63;100.00;97590.84;6203082;23;20028;-67
2022/10/17 07:37:15;;;;;;;5.45;1.20;;;18.20;99.90;;;17.90;100.00;97606.44;6203934;23;20748;-67
2022/10/17 07:39:42;;;;;;;6.75;1.52;;;18.50;99.90;;;18.20;100.00;97603.41;6205256;23;20012;-67
2022/10/17 07:42:09;;;;;;;6.80;1.20;;;18.80;99.90;;;18.51;100.00;97615.09;6203923;23;20372;-67
2022/10/17 07:44:36;;;;;;;9.02;1.10;;;19.10;99.90;;;18.53;100.00;97633.38;6204869;23;20482;-68
2022/10/17 07:47:03;;;;;;;6.30;1.02;;;19.20;99.90;;;18.73;100.00;97634.53;6206442;23;20032;-67
2022/10/17 07:49:30;;;;;;;5.80;1.25;;;19.40;99.90;;;18.64;100.00;97643.94;6206416;23;20126;-68
2022/10/17 07:51:57;;;;;;;8.15;1.15;;;19.30;99.90;;;18.91;100.00;97648.97;6207783;23;20025;-67
2022/10/17 07:54:24;;;;;;;5.15;1.05;;;19.30;99.90;;;19.00;100.00;97642.19;6207320;23;20029;-67
2022/10/17 07:56:51;;;;;;;6.30;0.93;;;19.40;99.90;;;18.90;100.00;97646.44;6207751;23;20021;-68
2022/10/17 07:59:18;;;;;;;4.38;1.00;;;19.50;99.90;;;19.12;100.00;97661.44;6206031;23;20025;-67
2022/10/17 08:01:44;;;;;;;4.45;1.20;;;19.60;99.90;;;18.58;100.00;97668.06;6206853;23;20024;-68
2022/10/17 08:04:11;;;;;;;2.35;0.95;;;19.70;99.90;;;18.47;100.00;97663.56;6206844;23;20036;-67
2022/10/17 08:06:38;;;;;;;4.85;1.00;;;19.60;99.90;;;18.61;100.00;97659.97;6206576;23;20027;-67
2022/10/17 08:09:05;;;;;;;6.15;1.10;;;19.70;99.90;;;18.57;100.00;97650.63;6208370;23;20028;-67
2022/10/17 08:11:32;;;;;;;4.65;1.08;;;19.50;99.90;;;18.89;100.00;97642.97;6208109;23;20024;-67
2022/10/17 08:13:59;;;;;;;5.80;1.10;;;19.50;99.90;;;18.78;100.00;97654.28;6205195;23;20102;-67
2022/10/17 08:16:26;;;;;;;7.00;1.33;;;19.50;99.90;;;18.88;100.00;97664.13;6206733;23;20051;-68
2022/10/17 08:18:53;;;;;;;2.25;0.90;;;19.70;99.90;;;19.22;100.00;97646.63;6204391;23;20025;-67
2022/10/17 08:21:19;;;;;;;3.05;0.77;;;19.70;99.90;;;19.38;100.00;97656.81;6207259;23;20028;-68
2022/10/17 08:23:46;;;;;;;8.63;1.27;;;19.80;99.90;;;19.67;100.00;97666.88;6206631;23;20112;-67
2022/10/17 08:26:16;;;;;;;2.47;0.90;;;19.80;99.90;;;19.36;100.00;97683.25;6206390;23;20047;-67
2022/10/17 08:28:43;;;;;;;5.88;1.10;;;19.80;99.90;;;19.51;100.00;97672.50;6205197;23;20027;-68
2022/10/17 08:31:17;;;;;;;3.33;0.90;;;19.70;99.90;;;19.09;100.00;97690.59;6204660;23;20055;-67
2022/10/17 08:33:46;;;;;;;5.50;1.00;;;19.80;99.90;;;19.11;100.00;97673.78;6203880;23;20043;-68
2022/10/17 08:36:16;;;;;;;10.55;1.50;;;19.60;99.90;;;18.96;100.00;97659.97;6204532;23;20060;-68
2022/10/17 08:38:44;;;;;;;3.03;1.27;;;19.60;99.90;;;18.92;100.00;97678.72;6205977;23;20017;-68
2022/10/17 08:41:48;;;;;;;3.28;1.27;;;19.60;99.90;;;18.84;100.00;97675.81;6201984;23;20411;-67
2022/10/17 08:44:47;;;;;;;6.50;1.10;;;19.60;99.90;;;18.88;100.00;97636.03;6202592;23;20460;-68
2022/10/17 08:47:22;;;;;;;2.70;1.10;;;19.60;99.90;;;18.70;100.00;97671.56;6203150;23;20060;-68
2022/10/17 08:49:58;;;;;;;4.07;0.80;;;19.70;99.90;;;18.81;100.00;97671.63;6202494;23;20028;-68
2022/10/17 08:52:51;;;;;;;2.97;1.10;;;19.70;99.90;;;18.81;100.00;97677.72;6202490;23;20546;-68
2022/10/17 08:55:41;;;;;;;6.18;1.23;;;19.50;99.90;;;18.87;100.00;97667.72;6205479;23;20021;-67
2022/10/17 08:58:14;;;;;;;3.85;1.00;;;19.60;99.90;;;18.88;100.00;97677.28;6203773;23;20115;-68
2022/10/17 09:01:09;;;;;;;4.40;1.08;;;19.70;99.90;;;19.04;100.00;97662.00;6202854;23;20028;-67
2022/10/17 09:03:59;;;;;;;6.65;1.35;;;19.80;99.90;;;19.01;100.00;97696.44;6203507;23;20024;-67
2022/10/17 09:06:43;;;;;;;4.97;1.15;;;19.90;99.90;;;19.14;100.00;97683.22;6203290;23;20028;-67
2022/10/17 09:09:25;;;;;;;4.57;1.20;;;19.80;99.90;;;19.17;100.00;97670.66;6203672;23;20031;-67
2022/10/17 09:12:16;;;;;;;3.75;1.20;;;20.00;99.90;;;19.08;100.00;97687.13;6205679;23;20601;-67
2022/10/17 09:15:29;;;;;;;4.80;1.02;;;20.00;99.90;;;19.14;100.00;97672.69;6203863;23;20017;-67
2022/10/17 09:18:39;;;;;;;8.15;1.08;;;20.00;99.90;;;19.11;100.00;97663.25;6204665;23;20036;-67
2022/10/17 09:21:19;;;;;;;7.57;1.20;;;20.00;99.90;;;19.25;100.00;97685.88;6214179;23;20052;-67
2022/10/17 09:23:55;;;;;;;5.68;1.42;;;20.10;99.90;;;19.09;100.00;97691.47;6203065;23;20432;-67
2022/10/17 09:26:38;;;;;;;3.00;0.95;;;20.10;99.90;;;19.27;100.00;97673.41;6202773;23;20135;-67
2022/10/17 09:29:30;;;;;;;6.47;1.10;;;20.00;99.90;;;19.22;100.00;97673.75;6205135;23;20021;-67
2022/10/17 09:32:17;;;;;;;4.30;1.17;;;20.10;99.90;;;19.33;100.00;97687.91;6202123;23;20111;-67
2022/10/17 09:34:44;;;;;;;3.67;1.02;;;20.10;99.90;;;19.33;100.00;97694.00;6204111;23;20472;-67
2022/10/17 09:37:15;;;;;;;2.85;1.00;;;20.10;99.90;;;19.30;100.00;97698.69;6202212;23;20539;-67
2022/10/17 09:39:43;;;;;;;4.32;1.13;;;20.10;99.90;;;19.29;100.00;97697.81;6203465;23;20028;-67
2022/10/17 09:42:17;;;;;;;3.78;1.10;;;20.10;99.90;;;19.26;100.00;97705.97;6202739;23;20032;-67
2022/10/17 09:45:14;;;;;;;4.10;1.10;;;20.20;99.90;;;19.23;100.00;97704.41;6199062;23;20301;-67
2022/10/17 09:47:52;;;;;;;7.78;1.13;;;20.10;99.90;;;19.22;100.00;97715.88;6201489;23;20475;-67
2022/10/17 09:50:31;;;;;;;4.93;1.10;;;20.10;99.90;;;19.19;100.00;97708.22;6202129;23;20024;-67
2022/10/17 09:53:16;;;;;;;6.82;1.55;;;20.20;99.90;;;19.23;100.00;97711.47;6204598;23;20025;-68
2022/10/17 09:55:54;;;;;;;5.10;1.30;;;20.10;99.90;;;19.44;100.00;97707.19;6199907;23;20044;-67
2022/10/17 09:58:22;;;;;;;4.15;1.10;;;20.10;99.90;;;19.38;100.00;97710.28;6200204;23;20027;-67
2022/10/17 10:00:49;;;;;;;4.53;1.30;;;20.10;99.90;;;19.44;100.00;97717.72;6176486;23;20024;-67
2022/10/17 10:03:20;;;;;;;5.03;1.50;;;20.10;99.90;;;19.27;100.00;97730.47;6203791;23;20101;-68
2022/10/17 10:06:11;;;;;;;4.47;1.20;;;20.10;99.90;;;19.35;100.00;97717.59;6202815;23;20029;-67
2022/10/17 10:08:57;;;;;;;4.47;1.17;;;20.10;99.90;;;19.43;100.00;97709.94;6201240;23;20028;-66
2022/10/17 10:11:54;;;;;;;6.03;1.38;;;20.10;99.90;;;19.36;100.00;97709.59;6200413;23;20098;-67
2022/10/17 10:14:33;;;;;;;5.60;1.35;;;20.10;99.90;;;19.32;100.00;97717.84;6200356;23;20090;-67
2022/10/17 10:17:04;;;;;;;9.60;1.42;;;20.10;99.90;;;19.56;100.00;97725.63;6201973;23;20024;-67
2022/10/17 10:19:37;;;;;;;6.15;1.30;;;20.20;99.90;;;19.59;100.00;97701.69;6204193;23;20020;-67
2022/10/17 10:22:25;;;;;;;6.18;1.42;;;20.40;99.90;;;19.59;100.00;97726.25;6202423;23;20025;-68
2022/10/17 10:25:22;;;;;;;13.57;1.67;;;20.40;99.90;;;19.58;100.00;97723.72;6201776;23;20036;-66
2022/10/17 10:27:49;;;;;;;6.30;1.42;;;20.50;99.90;;;19.49;100.00;97732.31;6190439;23;20063;-66
2022/10/17 10:30:20;;;;;;;5.05;1.20;;;20.50;99.90;;;19.58;100.00;97718.47;6202558;23;20075;-67
2022/10/17 10:32:48;;;;;;;3.95;1.38;;;20.40;99.90;;;19.57;100.00;97727.31;6202049;23;20047;-67
2022/10/17 10:35:21;;;;;;;5.53;1.48;;;20.50;99.90;;;19.58;100.00;97739.53;6202956;23;20024;-67
2022/10/17 10:37:55;;;;;;;4.88;1.42;;;20.40;99.90;;;19.70;100.00;97719.31;6200359;23;20017;-68